sensor_id;sensor_type;location;lat;lon;timestamp;P1;durP1;ratioP1;P2;durP2;ratioP2
22234;SDS011;11286;45.596;5.284;2023-04-07T00:00:58;8.32;;;6.97;;
22234;SDS011;11286;45.596;5.284;2023-04-07T00:03:23;10.07;;;6.93;;
22234;SDS011;11286;45.596;5.284;2023-04-07T00:05:49;9.50;;;6.78;;
22234;SDS011;11286;45.596;5.284;2023-04-07T00:08:15;10.88;;;6.88;;
22234;SDS011;11286;45.596;5.284;2023-04-07T00:10:41;8.77;;;6.88;;
22234;SDS011;11286;45.596;5.284;2023-04-07T00:13:06;8.70;;;6.93;;
22234;SDS011;11286;45.596;5.284;2023-04-07T00:15:32;8.55;;;6.78;;
22234;SDS011;11286;45.596;5.284;2023-04-07T00:17:58;7.85;;;6.60;;
22234;SDS011;11286;45.596;5.284;2023-04-07T00:20:23;14.43;;;7.47;;
22234;SDS011;11286;45.596;5.284;2023-04-07T00:22:49;10.77;;;7.15;;
22234;SDS011;11286;45.596;5.284;2023-04-07T00:25:15;8.73;;;7.30;;
22234;SDS011;11286;45.596;5.284;2023-04-07T00:27:40;7.97;;;6.68;;
22234;SDS011;11286;45.596;5.284;2023-04-07T00:30:06;11.27;;;7.68;;
22234;SDS011;11286;45.596;5.284;2023-04-07T00:32:32;9.25;;;7.28;;
22234;SDS011;11286;45.596;5.284;2023-04-07T00:34:58;8.80;;;6.95;;
22234;SDS011;11286;45.596;5.284;2023-04-07T00:37:24;9.80;;;6.90;;
22234;SDS011;11286;45.596;5.284;2023-04-07T00:39:50;9.35;;;7.45;;
22234;SDS011;11286;45.596;5.284;2023-04-07T00:42:16;8.57;;;7.00;;
22234;SDS011;11286;45.596;5.284;2023-04-07T00:44:42;11.85;;;8.85;;
22234;SDS011;11286;45.596;5.284;2023-04-07T00:47:08;15.82;;;11.40;;
22234;SDS011;11286;45.596;5.284;2023-04-07T00:49:35;10.93;;;8.73;;
22234;SDS011;11286;45.596;5.284;2023-04-07T00:52:01;10.18;;;8.00;;
22234;SDS011;11286;45.596;5.284;2023-04-07T00:54:27;9.77;;;7.90;;
22234;SDS011;11286;45.596;5.284;2023-04-07T00:56:54;9.90;;;6.47;;
22234;SDS011;11286;45.596;5.284;2023-04-07T00:59:22;12.50;;;6.93;;
22234;SDS011;11286;45.596;5.284;2023-04-07T01:01:50;7.07;;;6.38;;
22234;SDS011;11286;45.596;5.284;2023-04-07T01:04:26;8.13;;;6.28;;
22234;SDS011;11286;45.596;5.284;2023-04-07T01:07:17;8.30;;;6.80;;
22234;SDS011;11286;45.596;5.284;2023-04-07T01:09:51;8.23;;;6.40;;
22234;SDS011;11286;45.596;5.284;2023-04-07T01:12:23;8.27;;;6.15;;
22234;SDS011;11286;45.596;5.284;2023-04-07T01:15:11;8.85;;;6.00;;
22234;SDS011;11286;45.596;5.284;2023-04-07T01:20:42;7.22;;;5.90;;
22234;SDS011;11286;45.596;5.284;2023-04-07T01:23:10;9.65;;;6.50;;
22234;SDS011;11286;45.596;5.284;2023-04-07T01:31:03;9.43;;;6.22;;
22234;SDS011;11286;45.596;5.284;2023-04-07T01:33:32;9.20;;;6.38;;
22234;SDS011;11286;45.596;5.284;2023-04-07T01:35:59;9.10;;;6.22;;
22234;SDS011;11286;45.596;5.284;2023-04-07T01:38:26;8.32;;;6.57;;
22234;SDS011;11286;45.596;5.284;2023-04-07T01:40:53;8.95;;;7.00;;
22234;SDS011;11286;45.596;5.284;2023-04-07T01:43:21;9.45;;;6.20;;
22234;SDS011;11286;45.596;5.284;2023-04-07T01:45:48;7.78;;;6.30;;
22234;SDS011;11286;45.596;5.284;2023-04-07T01:48:15;8.93;;;6.00;;
22234;SDS011;11286;45.596;5.284;2023-04-07T01:50:42;7.88;;;5.88;;
22234;SDS011;11286;45.596;5.284;2023-04-07T01:53:09;9.23;;;6.03;;
22234;SDS011;11286;45.596;5.284;2023-04-07T01:55:36;7.45;;;5.47;;
22234;SDS011;11286;45.596;5.284;2023-04-07T01:58:05;9.02;;;6.15;;
22234;SDS011;11286;45.596;5.284;2023-04-07T02:00:31;6.93;;;6.13;;
22234;SDS011;11286;45.596;5.284;2023-04-07T02:02:59;8.35;;;6.30;;
22234;SDS011;11286;45.596;5.284;2023-04-07T02:05:34;7.32;;;5.80;;
22234;SDS011;11286;45.596;5.284;2023-04-07T02:08:03;6.97;;;6.00;;
22234;SDS011;11286;45.596;5.284;2023-04-07T02:10:32;7.53;;;6.10;;
22234;SDS011;11286;45.596;5.284;2023-04-07T02:13:02;8.25;;;5.63;;
22234;SDS011;11286;45.596;5.284;2023-04-07T02:15:36;8.80;;;5.32;;
22234;SDS011;11286;45.596;5.284;2023-04-07T02:18:03;6.72;;;5.50;;
22234;SDS011;11286;45.596;5.284;2023-04-07T02:20:30;6.75;;;5.65;;
22234;SDS011;11286;45.596;5.284;2023-04-07T02:22:57;9.20;;;5.55;;
22234;SDS011;11286;45.596;5.284;2023-04-07T02:25:24;7.25;;;5.05;;
22234;SDS011;11286;45.596;5.284;2023-04-07T02:27:51;6.47;;;5.78;;
22234;SDS011;11286;45.596;5.284;2023-04-07T02:30:17;7.38;;;5.50;;
22234;SDS011;11286;45.596;5.284;2023-04-07T02:32:43;8.05;;;5.55;;
22234;SDS011;11286;45.596;5.284;2023-04-07T02:35:09;7.35;;;5.97;;
22234;SDS011;11286;45.596;5.284;2023-04-07T02:37:35;7.65;;;5.90;;
22234;SDS011;11286;45.596;5.284;2023-04-07T02:40:01;7.50;;;6.03;;
22234;SDS011;11286;45.596;5.284;2023-04-07T02:42:27;7.15;;;5.45;;
22234;SDS011;11286;45.596;5.284;2023-04-07T02:44:53;8.18;;;6.18;;
22234;SDS011;11286;45.596;5.284;2023-04-07T02:47:19;7.47;;;5.53;;
22234;SDS011;11286;45.596;5.284;2023-04-07T02:49:44;7.50;;;6.00;;
22234;SDS011;11286;45.596;5.284;2023-04-07T02:52:10;6.63;;;5.22;;
22234;SDS011;11286;45.596;5.284;2023-04-07T02:54:36;6.38;;;4.85;;
22234;SDS011;11286;45.596;5.284;2023-04-07T02:57:02;5.78;;;4.85;;
22234;SDS011;11286;45.596;5.284;2023-04-07T02:59:27;6.53;;;4.88;;
22234;SDS011;11286;45.596;5.284;2023-04-07T03:01:53;5.82;;;4.45;;
22234;SDS011;11286;45.596;5.284;2023-04-07T03:04:19;5.97;;;4.55;;
22234;SDS011;11286;45.596;5.284;2023-04-07T03:06:45;4.85;;;4.35;;
22234;SDS011;11286;45.596;5.284;2023-04-07T03:09:11;7.65;;;5.30;;
22234;SDS011;11286;45.596;5.284;2023-04-07T03:11:36;6.30;;;4.60;;
22234;SDS011;11286;45.596;5.284;2023-04-07T03:14:02;6.55;;;5.85;;
22234;SDS011;11286;45.596;5.284;2023-04-07T03:16:28;9.32;;;5.53;;
22234;SDS011;11286;45.596;5.284;2023-04-07T03:18:53;6.22;;;5.30;;
22234;SDS011;11286;45.596;5.284;2023-04-07T03:21:19;6.80;;;5.07;;
22234;SDS011;11286;45.596;5.284;2023-04-07T03:23:45;6.97;;;5.35;;
22234;SDS011;11286;45.596;5.284;2023-04-07T03:26:11;7.85;;;5.07;;
22234;SDS011;11286;45.596;5.284;2023-04-07T03:28:36;7.18;;;5.18;;
22234;SDS011;11286;45.596;5.284;2023-04-07T03:31:02;5.35;;;4.72;;
22234;SDS011;11286;45.596;5.284;2023-04-07T03:33:28;6.55;;;5.57;;
22234;SDS011;11286;45.596;5.284;2023-04-07T03:35:53;6.65;;;5.28;;
22234;SDS011;11286;45.596;5.284;2023-04-07T03:38:19;6.82;;;5.50;;
22234;SDS011;11286;45.596;5.284;2023-04-07T03:40:45;6.18;;;5.47;;
22234;SDS011;11286;45.596;5.284;2023-04-07T03:43:11;6.57;;;5.25;;
22234;SDS011;11286;45.596;5.284;2023-04-07T03:45:39;5.88;;;5.28;;
22234;SDS011;11286;45.596;5.284;2023-04-07T03:48:06;8.63;;;5.78;;
22234;SDS011;11286;45.596;5.284;2023-04-07T03:50:36;12.43;;;6.15;;
22234;SDS011;11286;45.596;5.284;2023-04-07T03:53:03;22.83;;;6.68;;
22234;SDS011;11286;45.596;5.284;2023-04-07T03:55:28;15.82;;;6.82;;
22234;SDS011;11286;45.596;5.284;2023-04-07T03:57:54;9.23;;;6.20;;
22234;SDS011;11286;45.596;5.284;2023-04-07T04:00:20;7.65;;;6.03;;
22234;SDS011;11286;45.596;5.284;2023-04-07T04:02:46;7.65;;;5.40;;
22234;SDS011;11286;45.596;5.284;2023-04-07T04:05:11;7.22;;;5.45;;
22234;SDS011;11286;45.596;5.284;2023-04-07T04:07:37;6.57;;;4.97;;
22234;SDS011;11286;45.596;5.284;2023-04-07T04:10:03;6.47;;;5.57;;
22234;SDS011;11286;45.596;5.284;2023-04-07T04:12:29;7.57;;;5.10;;
22234;SDS011;11286;45.596;5.284;2023-04-07T04:14:54;6.70;;;4.90;;
22234;SDS011;11286;45.596;5.284;2023-04-07T04:17:20;6.53;;;5.15;;
22234;SDS011;11286;45.596;5.284;2023-04-07T04:19:45;8.13;;;5.05;;
22234;SDS011;11286;45.596;5.284;2023-04-07T04:22:11;7.13;;;4.97;;
22234;SDS011;11286;45.596;5.284;2023-04-07T04:24:37;9.73;;;5.07;;
22234;SDS011;11286;45.596;5.284;2023-04-07T04:27:02;8.73;;;5.00;;
22234;SDS011;11286;45.596;5.284;2023-04-07T04:29:28;8.18;;;5.22;;
22234;SDS011;11286;45.596;5.284;2023-04-07T04:31:54;7.43;;;4.82;;
22234;SDS011;11286;45.596;5.284;2023-04-07T04:34:20;7.53;;;5.22;;
22234;SDS011;11286;45.596;5.284;2023-04-07T04:36:45;6.80;;;4.63;;
22234;SDS011;11286;45.596;5.284;2023-04-07T04:39:13;6.75;;;4.47;;
22234;SDS011;11286;45.596;5.284;2023-04-07T04:41:38;6.35;;;4.85;;
22234;SDS011;11286;45.596;5.284;2023-04-07T04:44:04;5.88;;;4.60;;
22234;SDS011;11286;45.596;5.284;2023-04-07T04:46:30;7.80;;;5.07;;
22234;SDS011;11286;45.596;5.284;2023-04-07T04:48:56;10.32;;;5.50;;
22234;SDS011;11286;45.596;5.284;2023-04-07T04:51:22;9.52;;;5.70;;
22234;SDS011;11286;45.596;5.284;2023-04-07T04:53:47;7.90;;;5.72;;
22234;SDS011;11286;45.596;5.284;2023-04-07T04:56:13;7.93;;;5.70;;
22234;SDS011;11286;45.596;5.284;2023-04-07T04:58:39;7.82;;;5.38;;
22234;SDS011;11286;45.596;5.284;2023-04-07T05:01:10;9.95;;;6.00;;
22234;SDS011;11286;45.596;5.284;2023-04-07T05:03:36;8.25;;;5.40;;
22234;SDS011;11286;45.596;5.284;2023-04-07T05:06:01;11.63;;;5.90;;
22234;SDS011;11286;45.596;5.284;2023-04-07T05:08:27;8.43;;;5.82;;
22234;SDS011;11286;45.596;5.284;2023-04-07T05:10:53;13.43;;;8.88;;
22234;SDS011;11286;45.596;5.284;2023-04-07T05:13:19;11.80;;;8.23;;
22234;SDS011;11286;45.596;5.284;2023-04-07T05:15:45;10.88;;;6.68;;
22234;SDS011;11286;45.596;5.284;2023-04-07T05:18:11;16.13;;;7.32;;
22234;SDS011;11286;45.596;5.284;2023-04-07T05:20:36;22.33;;;10.63;;
22234;SDS011;11286;45.596;5.284;2023-04-07T05:23:02;11.52;;;6.85;;
22234;SDS011;11286;45.596;5.284;2023-04-07T05:25:28;11.20;;;6.75;;
22234;SDS011;11286;45.596;5.284;2023-04-07T05:27:54;9.77;;;6.90;;
22234;SDS011;11286;45.596;5.284;2023-04-07T05:30:20;9.45;;;5.80;;
22234;SDS011;11286;45.596;5.284;2023-04-07T05:32:46;7.70;;;6.25;;
22234;SDS011;11286;45.596;5.284;2023-04-07T05:35:11;8.57;;;5.93;;
22234;SDS011;11286;45.596;5.284;2023-04-07T05:37:37;10.48;;;6.40;;
22234;SDS011;11286;45.596;5.284;2023-04-07T05:40:03;8.05;;;6.13;;
22234;SDS011;11286;45.596;5.284;2023-04-07T05:42:29;15.15;;;6.60;;
22234;SDS011;11286;45.596;5.284;2023-04-07T05:44:55;12.27;;;6.05;;
22234;SDS011;11286;45.596;5.284;2023-04-07T05:47:20;9.25;;;6.47;;
22234;SDS011;11286;45.596;5.284;2023-04-07T05:49:46;8.13;;;5.60;;
22234;SDS011;11286;45.596;5.284;2023-04-07T05:52:12;9.48;;;5.78;;
22234;SDS011;11286;45.596;5.284;2023-04-07T05:54:38;13.05;;;6.90;;
22234;SDS011;11286;45.596;5.284;2023-04-07T05:57:07;12.80;;;6.50;;
22234;SDS011;11286;45.596;5.284;2023-04-07T05:59:33;10.25;;;6.18;;
22234;SDS011;11286;45.596;5.284;2023-04-07T06:01:59;7.20;;;6.10;;
22234;SDS011;11286;45.596;5.284;2023-04-07T06:04:25;13.38;;;6.32;;
22234;SDS011;11286;45.596;5.284;2023-04-07T06:06:50;9.85;;;6.50;;
22234;SDS011;11286;45.596;5.284;2023-04-07T06:09:19;15.55;;;7.60;;
22234;SDS011;11286;45.596;5.284;2023-04-07T06:11:47;15.23;;;10.52;;
22234;SDS011;11286;45.596;5.284;2023-04-07T06:14:13;9.60;;;7.55;;
22234;SDS011;11286;45.596;5.284;2023-04-07T06:16:39;15.07;;;10.40;;
22234;SDS011;11286;45.596;5.284;2023-04-07T06:19:05;12.10;;;9.38;;
22234;SDS011;11286;45.596;5.284;2023-04-07T06:21:31;10.90;;;7.43;;
22234;SDS011;11286;45.596;5.284;2023-04-07T06:23:57;9.73;;;7.30;;
22234;SDS011;11286;45.596;5.284;2023-04-07T06:26:23;7.80;;;6.97;;
22234;SDS011;11286;45.596;5.284;2023-04-07T06:28:49;10.63;;;7.68;;
22234;SDS011;11286;45.596;5.284;2023-04-07T06:31:15;22.42;;;13.75;;
22234;SDS011;11286;45.596;5.284;2023-04-07T06:33:41;24.40;;;13.68;;
22234;SDS011;11286;45.596;5.284;2023-04-07T06:36:06;13.77;;;9.15;;
22234;SDS011;11286;45.596;5.284;2023-04-07T06:38:32;11.20;;;7.25;;
22234;SDS011;11286;45.596;5.284;2023-04-07T06:40:58;10.85;;;7.72;;
22234;SDS011;11286;45.596;5.284;2023-04-07T06:43:23;10.15;;;8.15;;
22234;SDS011;11286;45.596;5.284;2023-04-07T06:45:49;8.65;;;7.05;;
22234;SDS011;11286;45.596;5.284;2023-04-07T06:48:15;10.80;;;7.13;;
22234;SDS011;11286;45.596;5.284;2023-04-07T06:50:40;9.63;;;7.25;;
22234;SDS011;11286;45.596;5.284;2023-04-07T06:53:06;9.73;;;7.18;;
22234;SDS011;11286;45.596;5.284;2023-04-07T06:55:32;12.15;;;7.93;;
22234;SDS011;11286;45.596;5.284;2023-04-07T06:57:58;12.95;;;7.60;;
22234;SDS011;11286;45.596;5.284;2023-04-07T07:00:23;9.80;;;7.53;;
22234;SDS011;11286;45.596;5.284;2023-04-07T07:02:50;13.50;;;7.72;;
22234;SDS011;11286;45.596;5.284;2023-04-07T07:05:15;11.75;;;7.18;;
22234;SDS011;11286;45.596;5.284;2023-04-07T07:07:41;11.13;;;7.25;;
22234;SDS011;11286;45.596;5.284;2023-04-07T07:10:09;11.98;;;7.18;;
22234;SDS011;11286;45.596;5.284;2023-04-07T07:12:35;13.98;;;7.65;;
22234;SDS011;11286;45.596;5.284;2023-04-07T07:15:01;12.48;;;9.18;;
22234;SDS011;11286;45.596;5.284;2023-04-07T07:17:27;11.70;;;7.93;;
22234;SDS011;11286;45.596;5.284;2023-04-07T07:19:54;14.40;;;8.35;;
22234;SDS011;11286;45.596;5.284;2023-04-07T07:22:20;13.35;;;8.00;;
22234;SDS011;11286;45.596;5.284;2023-04-07T07:24:45;10.02;;;8.38;;
22234;SDS011;11286;45.596;5.284;2023-04-07T07:27:11;16.75;;;7.93;;
22234;SDS011;11286;45.596;5.284;2023-04-07T07:29:37;13.48;;;8.30;;
22234;SDS011;11286;45.596;5.284;2023-04-07T07:32:02;12.20;;;8.38;;
22234;SDS011;11286;45.596;5.284;2023-04-07T07:34:28;10.18;;;7.32;;
22234;SDS011;11286;45.596;5.284;2023-04-07T07:36:54;12.10;;;8.15;;
22234;SDS011;11286;45.596;5.284;2023-04-07T07:39:19;14.68;;;8.40;;
22234;SDS011;11286;45.596;5.284;2023-04-07T07:41:45;14.00;;;8.07;;
22234;SDS011;11286;45.596;5.284;2023-04-07T07:44:11;10.55;;;8.10;;
22234;SDS011;11286;45.596;5.284;2023-04-07T07:46:36;14.63;;;8.27;;
22234;SDS011;11286;45.596;5.284;2023-04-07T07:49:02;12.50;;;8.02;;
22234;SDS011;11286;45.596;5.284;2023-04-07T07:51:29;14.90;;;8.07;;
22234;SDS011;11286;45.596;5.284;2023-04-07T07:53:55;13.38;;;8.00;;
22234;SDS011;11286;45.596;5.284;2023-04-07T07:56:20;10.95;;;7.65;;
22234;SDS011;11286;45.596;5.284;2023-04-07T07:58:46;14.38;;;8.43;;
22234;SDS011;11286;45.596;5.284;2023-04-07T08:01:12;11.60;;;8.02;;
22234;SDS011;11286;45.596;5.284;2023-04-07T08:03:38;10.85;;;7.70;;
22234;SDS011;11286;45.596;5.284;2023-04-07T08:06:03;10.27;;;7.93;;
22234;SDS011;11286;45.596;5.284;2023-04-07T08:08:30;10.10;;;7.78;;
22234;SDS011;11286;45.596;5.284;2023-04-07T08:10:56;12.25;;;7.65;;
22234;SDS011;11286;45.596;5.284;2023-04-07T08:13:21;9.77;;;6.97;;
22234;SDS011;11286;45.596;5.284;2023-04-07T08:15:47;12.90;;;7.63;;
22234;SDS011;11286;45.596;5.284;2023-04-07T08:18:12;10.73;;;8.40;;
22234;SDS011;11286;45.596;5.284;2023-04-07T08:20:38;11.10;;;7.15;;
22234;SDS011;11286;45.596;5.284;2023-04-07T08:23:04;11.70;;;9.13;;
22234;SDS011;11286;45.596;5.284;2023-04-07T08:25:29;9.95;;;8.95;;
22234;SDS011;11286;45.596;5.284;2023-04-07T08:27:55;8.25;;;7.03;;
22234;SDS011;11286;45.596;5.284;2023-04-07T08:30:20;8.70;;;7.07;;
22234;SDS011;11286;45.596;5.284;2023-04-07T08:32:46;9.02;;;7.68;;
22234;SDS011;11286;45.596;5.284;2023-04-07T08:35:12;8.88;;;7.97;;
22234;SDS011;11286;45.596;5.284;2023-04-07T08:37:38;8.93;;;6.50;;
22234;SDS011;11286;45.596;5.284;2023-04-07T08:40:05;7.20;;;6.35;;
22234;SDS011;11286;45.596;5.284;2023-04-07T08:42:32;5.43;;;4.93;;
22234;SDS011;11286;45.596;5.284;2023-04-07T08:45:05;7.97;;;5.95;;
22234;SDS011;11286;45.596;5.284;2023-04-07T08:47:33;6.32;;;5.38;;
22234;SDS011;11286;45.596;5.284;2023-04-07T08:50:00;5.72;;;5.10;;
22234;SDS011;11286;45.596;5.284;2023-04-07T08:53:01;6.75;;;6.05;;
22234;SDS011;11286;45.596;5.284;2023-04-07T08:55:20;6.57;;;4.93;;
22234;SDS011;11286;45.596;5.284;2023-04-07T08:57:46;6.63;;;5.25;;
22234;SDS011;11286;45.596;5.284;2023-04-07T09:00:13;6.72;;;5.13;;
22234;SDS011;11286;45.596;5.284;2023-04-07T09:02:42;5.93;;;5.28;;
22234;SDS011;11286;45.596;5.284;2023-04-07T09:05:09;6.72;;;4.78;;
22234;SDS011;11286;45.596;5.284;2023-04-07T09:07:36;6.03;;;4.82;;
22234;SDS011;11286;45.596;5.284;2023-04-07T09:10:04;4.50;;;4.07;;
22234;SDS011;11286;45.596;5.284;2023-04-07T09:12:30;5.88;;;4.22;;
22234;SDS011;11286;45.596;5.284;2023-04-07T09:14:57;5.00;;;4.15;;
22234;SDS011;11286;45.596;5.284;2023-04-07T09:17:24;5.78;;;3.88;;
22234;SDS011;11286;45.596;5.284;2023-04-07T09:19:51;6.07;;;4.15;;
22234;SDS011;11286;45.596;5.284;2023-04-07T09:22:33;5.53;;;4.43;;
22234;SDS011;11286;45.596;5.284;2023-04-07T09:25:12;5.38;;;3.83;;
22234;SDS011;11286;45.596;5.284;2023-04-07T09:27:56;6.55;;;4.20;;
22234;SDS011;11286;45.596;5.284;2023-04-07T09:30:27;7.78;;;4.68;;
22234;SDS011;11286;45.596;5.284;2023-04-07T09:32:53;6.82;;;4.65;;
22234;SDS011;11286;45.596;5.284;2023-04-07T09:35:19;5.07;;;4.40;;
22234;SDS011;11286;45.596;5.284;2023-04-07T09:38:00;6.35;;;4.38;;
22234;SDS011;11286;45.596;5.284;2023-04-07T09:40:27;5.97;;;4.38;;
22234;SDS011;11286;45.596;5.284;2023-04-07T09:42:53;6.30;;;4.22;;
22234;SDS011;11286;45.596;5.284;2023-04-07T09:45:28;7.07;;;3.95;;
22234;SDS011;11286;45.596;5.284;2023-04-07T09:47:56;5.75;;;3.65;;
22234;SDS011;11286;45.596;5.284;2023-04-07T09:50:32;5.88;;;4.00;;
22234;SDS011;11286;45.596;5.284;2023-04-07T09:52:59;4.65;;;4.15;;
22234;SDS011;11286;45.596;5.284;2023-04-07T09:55:26;5.97;;;3.25;;
22234;SDS011;11286;45.596;5.284;2023-04-07T09:57:53;3.58;;;2.28;;
22234;SDS011;11286;45.596;5.284;2023-04-07T10:00:22;4.57;;;2.40;;
22234;SDS011;11286;45.596;5.284;2023-04-07T10:02:48;4.88;;;2.28;;
22234;SDS011;11286;45.596;5.284;2023-04-07T10:05:15;4.45;;;2.00;;
22234;SDS011;11286;45.596;5.284;2023-04-07T10:07:41;3.40;;;1.98;;
22234;SDS011;11286;45.596;5.284;2023-04-07T10:10:07;6.82;;;2.10;;
22234;SDS011;11286;45.596;5.284;2023-04-07T10:12:34;4.07;;;1.90;;
22234;SDS011;11286;45.596;5.284;2023-04-07T10:15:01;2.13;;;1.10;;
22234;SDS011;11286;45.596;5.284;2023-04-07T10:17:28;2.97;;;1.30;;
22234;SDS011;11286;45.596;5.284;2023-04-07T10:19:56;2.50;;;1.48;;
22234;SDS011;11286;45.596;5.284;2023-04-07T10:22:23;3.45;;;1.33;;
22234;SDS011;11286;45.596;5.284;2023-04-07T10:25:02;2.53;;;1.35;;
22234;SDS011;11286;45.596;5.284;2023-04-07T10:27:42;3.63;;;1.45;;
22234;SDS011;11286;45.596;5.284;2023-04-07T10:30:18;2.70;;;1.30;;
22234;SDS011;11286;45.596;5.284;2023-04-07T10:32:52;3.50;;;1.38;;
22234;SDS011;11286;45.596;5.284;2023-04-07T10:35:18;4.05;;;1.30;;
22234;SDS011;11286;45.596;5.284;2023-04-07T10:40:32;6.97;;;1.42;;
22234;SDS011;11286;45.596;5.284;2023-04-07T10:42:59;3.40;;;1.60;;
22234;SDS011;11286;45.596;5.284;2023-04-07T10:48:23;3.08;;;1.40;;
22234;SDS011;11286;45.596;5.284;2023-04-07T10:53:31;1.50;;;1.25;;
22234;SDS011;11286;45.596;5.284;2023-04-07T10:55:58;2.70;;;1.50;;
22234;SDS011;11286;45.596;5.284;2023-04-07T10:58:27;5.63;;;3.10;;
22234;SDS011;11286;45.596;5.284;2023-04-07T11:03:25;2.58;;;1.30;;
22234;SDS011;11286;45.596;5.284;2023-04-07T11:05:52;5.47;;;1.65;;
22234;SDS011;11286;45.596;5.284;2023-04-07T11:08:33;2.15;;;1.30;;
22234;SDS011;11286;45.596;5.284;2023-04-07T11:11:00;2.50;;;1.40;;
22234;SDS011;11286;45.596;5.284;2023-04-07T11:13:26;4.47;;;2.63;;
22234;SDS011;11286;45.596;5.284;2023-04-07T11:15:52;3.10;;;1.30;;
22234;SDS011;11286;45.596;5.284;2023-04-07T11:18:18;1.60;;;1.10;;
22234;SDS011;11286;45.596;5.284;2023-04-07T11:20:55;2.85;;;1.05;;
22234;SDS011;11286;45.596;5.284;2023-04-07T11:23:24;1.88;;;1.38;;
22234;SDS011;11286;45.596;5.284;2023-04-07T11:25:59;2.33;;;1.27;;
22234;SDS011;11286;45.596;5.284;2023-04-07T11:28:26;3.38;;;1.40;;
22234;SDS011;11286;45.596;5.284;2023-04-07T11:30:52;3.17;;;1.20;;
22234;SDS011;11286;45.596;5.284;2023-04-07T11:33:22;4.85;;;1.33;;
22234;SDS011;11286;45.596;5.284;2023-04-07T11:35:51;3.60;;;1.55;;
22234;SDS011;11286;45.596;5.284;2023-04-07T11:38:19;1.80;;;1.20;;
22234;SDS011;11286;45.596;5.284;2023-04-07T11:40:46;2.13;;;1.15;;
22234;SDS011;11286;45.596;5.284;2023-04-07T11:43:16;1.55;;;1.30;;
22234;SDS011;11286;45.596;5.284;2023-04-07T11:45:43;2.90;;;1.55;;
22234;SDS011;11286;45.596;5.284;2023-04-07T11:48:25;1.83;;;1.15;;
22234;SDS011;11286;45.596;5.284;2023-04-07T11:50:51;2.83;;;1.30;;
22234;SDS011;11286;45.596;5.284;2023-04-07T11:53:27;2.78;;;1.50;;
22234;SDS011;11286;45.596;5.284;2023-04-07T11:56:10;3.00;;;1.38;;
22234;SDS011;11286;45.596;5.284;2023-04-07T11:58:50;3.00;;;1.42;;
22234;SDS011;11286;45.596;5.284;2023-04-07T12:01:17;2.10;;;1.45;;
22234;SDS011;11286;45.596;5.284;2023-04-07T12:03:56;2.10;;;1.20;;
22234;SDS011;11286;45.596;5.284;2023-04-07T12:06:27;1.98;;;1.30;;
22234;SDS011;11286;45.596;5.284;2023-04-07T12:08:59;3.05;;;1.48;;
22234;SDS011;11286;45.596;5.284;2023-04-07T12:11:25;4.07;;;1.33;;
22234;SDS011;11286;45.596;5.284;2023-04-07T12:13:51;1.67;;;1.10;;
22234;SDS011;11286;45.596;5.284;2023-04-07T12:16:18;2.95;;;1.30;;
22234;SDS011;11286;45.596;5.284;2023-04-07T12:18:44;2.13;;;1.20;;
22234;SDS011;11286;45.596;5.284;2023-04-07T12:21:09;1.63;;;1.17;;
22234;SDS011;11286;45.596;5.284;2023-04-07T12:23:35;1.17;;;1.00;;
22234;SDS011;11286;45.596;5.284;2023-04-07T12:26:01;2.75;;;1.08;;
22234;SDS011;11286;45.596;5.284;2023-04-07T12:28:26;2.20;;;1.10;;
22234;SDS011;11286;45.596;5.284;2023-04-07T12:30:53;1.63;;;1.08;;
22234;SDS011;11286;45.596;5.284;2023-04-07T12:33:19;2.08;;;1.10;;
22234;SDS011;11286;45.596;5.284;2023-04-07T12:35:45;2.53;;;1.00;;
22234;SDS011;11286;45.596;5.284;2023-04-07T12:38:10;1.42;;;1.10;;
22234;SDS011;11286;45.596;5.284;2023-04-07T12:40:36;1.67;;;1.17;;
22234;SDS011;11286;45.596;5.284;2023-04-07T12:43:03;2.35;;;1.13;;
22234;SDS011;11286;45.596;5.284;2023-04-07T12:45:29;1.80;;;1.20;;
22234;SDS011;11286;45.596;5.284;2023-04-07T12:47:56;1.75;;;1.05;;
22234;SDS011;11286;45.596;5.284;2023-04-07T12:50:22;2.13;;;1.30;;
22234;SDS011;11286;45.596;5.284;2023-04-07T12:52:49;2.42;;;1.30;;
22234;SDS011;11286;45.596;5.284;2023-04-07T12:55:16;3.53;;;1.10;;
22234;SDS011;11286;45.596;5.284;2023-04-07T12:57:42;2.05;;;1.05;;
22234;SDS011;11286;45.596;5.284;2023-04-07T13:00:08;2.97;;;1.30;;
22234;SDS011;11286;45.596;5.284;2023-04-07T13:02:34;3.17;;;0.90;;
22234;SDS011;11286;45.596;5.284;2023-04-07T13:05:02;1.15;;;1.00;;
22234;SDS011;11286;45.596;5.284;2023-04-07T13:07:28;3.08;;;1.33;;
22234;SDS011;11286;45.596;5.284;2023-04-07T13:09:54;1.60;;;1.00;;
22234;SDS011;11286;45.596;5.284;2023-04-07T13:12:21;4.07;;;1.17;;
22234;SDS011;11286;45.596;5.284;2023-04-07T13:14:47;2.28;;;1.08;;
22234;SDS011;11286;45.596;5.284;2023-04-07T13:17:12;2.50;;;1.25;;
22234;SDS011;11286;45.596;5.284;2023-04-07T13:19:38;2.25;;;1.20;;
22234;SDS011;11286;45.596;5.284;2023-04-07T13:22:04;2.10;;;0.80;;
22234;SDS011;11286;45.596;5.284;2023-04-07T13:24:30;1.95;;;1.10;;
22234;SDS011;11286;45.596;5.284;2023-04-07T13:26:56;2.65;;;1.23;;
22234;SDS011;11286;45.596;5.284;2023-04-07T13:29:22;1.70;;;0.98;;
22234;SDS011;11286;45.596;5.284;2023-04-07T13:31:48;1.58;;;1.17;;
22234;SDS011;11286;45.596;5.284;2023-04-07T13:34:13;1.95;;;1.30;;
22234;SDS011;11286;45.596;5.284;2023-04-07T13:36:40;2.85;;;1.17;;
22234;SDS011;11286;45.596;5.284;2023-04-07T13:39:06;2.60;;;1.10;;
22234;SDS011;11286;45.596;5.284;2023-04-07T13:41:32;2.15;;;1.00;;
22234;SDS011;11286;45.596;5.284;2023-04-07T13:43:58;2.63;;;1.10;;
22234;SDS011;11286;45.596;5.284;2023-04-07T13:46:24;2.00;;;0.90;;
22234;SDS011;11286;45.596;5.284;2023-04-07T13:48:51;2.65;;;1.00;;
22234;SDS011;11286;45.596;5.284;2023-04-07T13:51:17;2.17;;;1.30;;
22234;SDS011;11286;45.596;5.284;2023-04-07T13:53:42;2.15;;;1.08;;
22234;SDS011;11286;45.596;5.284;2023-04-07T13:56:09;2.42;;;1.10;;
22234;SDS011;11286;45.596;5.284;2023-04-07T13:58:34;2.33;;;1.10;;
22234;SDS011;11286;45.596;5.284;2023-04-07T14:01:00;1.92;;;1.10;;
22234;SDS011;11286;45.596;5.284;2023-04-07T14:03:27;2.72;;;1.13;;
22234;SDS011;11286;45.596;5.284;2023-04-07T14:05:53;2.53;;;1.13;;
22234;SDS011;11286;45.596;5.284;2023-04-07T14:08:19;2.28;;;1.10;;
22234;SDS011;11286;45.596;5.284;2023-04-07T14:10:47;1.95;;;1.02;;
22234;SDS011;11286;45.596;5.284;2023-04-07T14:13:13;2.95;;;1.50;;
22234;SDS011;11286;45.596;5.284;2023-04-07T14:15:39;6.13;;;2.03;;
22234;SDS011;11286;45.596;5.284;2023-04-07T14:18:05;4.47;;;1.38;;
22234;SDS011;11286;45.596;5.284;2023-04-07T14:20:31;3.55;;;1.20;;
22234;SDS011;11286;45.596;5.284;2023-04-07T14:22:57;6.10;;;2.10;;
22234;SDS011;11286;45.596;5.284;2023-04-07T14:25:23;3.67;;;1.40;;
22234;SDS011;11286;45.596;5.284;2023-04-07T14:27:49;2.35;;;1.10;;
22234;SDS011;11286;45.596;5.284;2023-04-07T14:30:16;6.05;;;1.40;;
22234;SDS011;11286;45.596;5.284;2023-04-07T14:32:42;2.22;;;1.00;;
22234;SDS011;11286;45.596;5.284;2023-04-07T14:35:07;1.35;;;1.10;;
22234;SDS011;11286;45.596;5.284;2023-04-07T14:37:33;3.75;;;1.70;;
22234;SDS011;11286;45.596;5.284;2023-04-07T14:40:00;2.20;;;1.02;;
22234;SDS011;11286;45.596;5.284;2023-04-07T14:42:26;5.30;;;2.50;;
22234;SDS011;11286;45.596;5.284;2023-04-07T14:44:53;3.72;;;1.00;;
22234;SDS011;11286;45.596;5.284;2023-04-07T14:47:19;2.30;;;1.05;;
22234;SDS011;11286;45.596;5.284;2023-04-07T14:49:45;2.17;;;0.80;;
22234;SDS011;11286;45.596;5.284;2023-04-07T14:52:11;2.30;;;1.40;;
22234;SDS011;11286;45.596;5.284;2023-04-07T14:54:40;1.83;;;1.40;;
22234;SDS011;11286;45.596;5.284;2023-04-07T14:57:05;2.50;;;1.00;;
22234;SDS011;11286;45.596;5.284;2023-04-07T14:59:31;2.05;;;0.88;;
22234;SDS011;11286;45.596;5.284;2023-04-07T15:01:56;1.00;;;0.82;;
22234;SDS011;11286;45.596;5.284;2023-04-07T15:04:22;2.25;;;1.13;;